AFR28 KORD-LFPG
Flight info
| Callsign | AFR28 |
|---|---|
| Flight time | N/A |
| Altitude | 39000 |
| Route | EBAKE DCT WISMO DCT POSTS DCT PADDE DCT SVM Q907 SIKBO DCT MIVOK DCT IPTOS DCT IMORI DCT BAREE N793B JANJO/M084F400 NATV NETKI/N0486F410 DCT REVNU DCT RINUS DCT MORAG DCT NUCHU L18 MID/N0505F290 Y803 SFD UM605 BIBAX |
| Aircraft | A359/H-SDE2E3GHIJ3J4J5LM1ORWXY/LB1D1 |
Departure
| Time | N/A |
|---|---|
| Airport | Chicago O'Hare International Airport (KORD) |
Arrival
| Time | 2026-04-30 09:38 |
|---|---|
| Airport | Charles de Gaulle International Airport (LFPG) |
| Time | Latitude | Longitude | Altitude | Speed | Heading |
|---|---|---|---|---|---|
| 2026-04-30 08:01 | 54.70996 | -11.77018 | 40154 ft | 476 kts | 107° |
| 2026-04-30 08:01 | 54.69433 | -11.65904 | 40159 ft | 475 kts | 107° |
| 2026-04-30 08:02 | 54.67081 | -11.49290 | 40160 ft | 474 kts | 107° |
| 2026-04-30 08:03 | 54.63921 | -11.27268 | 40162 ft | 474 kts | 107° |
| 2026-04-30 08:04 | 54.62318 | -11.16233 | 40151 ft | 474 kts | 107° |
| 2026-04-30 08:04 | 54.60707 | -11.05203 | 40160 ft | 474 kts | 107° |
| 2026-04-30 08:05 | 54.59090 | -10.94187 | 40153 ft | 474 kts | 107° |
| 2026-04-30 08:05 | 54.57460 | -10.83181 | 40158 ft | 474 kts | 107° |
| 2026-04-30 08:06 | 54.55822 | -10.72189 | 40156 ft | 473 kts | 108° |
| 2026-04-30 08:06 | 54.54176 | -10.61222 | 40158 ft | 473 kts | 108° |
| 2026-04-30 08:07 | 54.52522 | -10.50301 | 40165 ft | 470 kts | 108° |
| 2026-04-30 08:07 | 54.50870 | -10.39444 | 40163 ft | 469 kts | 108° |
| 2026-04-30 08:08 | 54.49210 | -10.28601 | 40163 ft | 469 kts | 108° |
| 2026-04-30 08:08 | 54.47540 | -10.17764 | 40154 ft | 469 kts | 109° |
| 2026-04-30 08:09 | 54.45180 | -10.07405 | 40161 ft | 464 kts | 120° |
| 2026-04-30 08:09 | 54.42149 | -9.97593 | 40161 ft | 465 kts | 122° |
| 2026-04-30 08:10 | 54.39007 | -9.87889 | 40166 ft | 465 kts | 122° |
| 2026-04-30 08:10 | 54.35854 | -9.78200 | 40167 ft | 465 kts | 122° |
| 2026-04-30 08:11 | 54.32717 | -9.68533 | 40165 ft | 463 kts | 122° |
| 2026-04-30 08:11 | 54.29595 | -9.58917 | 40158 ft | 461 kts | 123° |
| 2026-04-30 08:12 | 54.26472 | -9.49334 | 40160 ft | 461 kts | 122° |
| 2026-04-30 08:12 | 54.23341 | -9.39775 | 40160 ft | 461 kts | 123° |
| 2026-04-30 08:13 | 54.20199 | -9.30226 | 40158 ft | 461 kts | 123° |
| 2026-04-30 08:13 | 54.17056 | -9.20697 | 40153 ft | 461 kts | 123° |
| 2026-04-30 08:14 | 54.13925 | -9.11250 | 40153 ft | 460 kts | 122° |
| 2026-04-30 08:14 | 54.10771 | -9.01768 | 40153 ft | 459 kts | 123° |
| 2026-04-30 08:15 | 54.07616 | -8.92315 | 40152 ft | 459 kts | 123° |
| 2026-04-30 08:15 | 54.04452 | -8.82878 | 40155 ft | 459 kts | 123° |
| 2026-04-30 08:16 | 54.01282 | -8.73457 | 40154 ft | 459 kts | 123° |
| 2026-04-30 08:16 | 53.98105 | -8.64050 | 40154 ft | 459 kts | 123° |
| 2026-04-30 08:17 | 53.94914 | -8.54644 | 40154 ft | 459 kts | 123° |
| 2026-04-30 08:17 | 53.91718 | -8.45256 | 40150 ft | 460 kts | 123° |
| 2026-04-30 08:18 | 53.88511 | -8.35870 | 40148 ft | 460 kts | 123° |
| 2026-04-30 08:18 | 53.85291 | -8.26482 | 40144 ft | 461 kts | 123° |
| 2026-04-30 08:19 | 53.82080 | -8.17153 | 40167 ft | 461 kts | 123° |
| 2026-04-30 08:19 | 53.78843 | -8.07787 | 40149 ft | 461 kts | 124° |
| 2026-04-30 08:20 | 53.75595 | -7.98422 | 40144 ft | 461 kts | 124° |
| 2026-04-30 08:20 | 53.72345 | -7.89090 | 40167 ft | 461 kts | 124° |
| 2026-04-30 08:21 | 53.69080 | -7.79756 | 40147 ft | 462 kts | 124° |
| 2026-04-30 08:21 | 53.65829 | -7.70490 | 40157 ft | 462 kts | 124° |
| 2026-04-30 08:22 | 53.62503 | -7.61222 | 40158 ft | 461 kts | 126° |
| 2026-04-30 08:22 | 53.58926 | -7.52271 | 40152 ft | 461 kts | 127° |
| 2026-04-30 08:23 | 53.55300 | -7.43379 | 40161 ft | 461 kts | 127° |
| 2026-04-30 08:23 | 53.51700 | -7.34457 | 40165 ft | 461 kts | 127° |
| 2026-04-30 08:24 | 53.48116 | -7.25520 | 40159 ft | 462 kts | 127° |
| 2026-04-30 08:24 | 53.44528 | -7.16580 | 40167 ft | 463 kts | 127° |
| 2026-04-30 08:25 | 53.40912 | -7.07639 | 40169 ft | 463 kts | 127° |
| 2026-04-30 08:25 | 53.37303 | -6.98721 | 40174 ft | 463 kts | 127° |
| 2026-04-30 08:26 | 53.33688 | -6.89806 | 40169 ft | 463 kts | 127° |
| 2026-04-30 08:26 | 53.30064 | -6.80911 | 40167 ft | 463 kts | 127° |
| 2026-04-30 08:27 | 53.26432 | -6.72037 | 40172 ft | 463 kts | 127° |
| 2026-04-30 08:27 | 53.22816 | -6.63234 | 40159 ft | 462 kts | 127° |
| 2026-04-30 08:28 | 53.19155 | -6.54348 | 40183 ft | 461 kts | 127° |
| 2026-04-30 08:28 | 53.15515 | -6.45544 | 40183 ft | 461 kts | 127° |
| 2026-04-30 08:29 | 53.11891 | -6.36809 | 40182 ft | 461 kts | 127° |
| 2026-04-30 08:29 | 53.08237 | -6.28033 | 40189 ft | 461 kts | 127° |
| 2026-04-30 08:30 | 53.04573 | -6.19265 | 40184 ft | 462 kts | 127° |
| 2026-04-30 08:30 | 53.01501 | -6.11935 | 40187 ft | 462 kts | 127° |
| 2026-04-30 08:31 | 52.97819 | -6.03177 | 40186 ft | 464 kts | 127° |
| 2026-04-30 08:31 | 52.94120 | -5.94412 | 40185 ft | 464 kts | 127° |
| 2026-04-30 08:32 | 52.90434 | -5.85706 | 40170 ft | 465 kts | 127° |
| 2026-04-30 08:32 | 52.86717 | -5.76956 | 40173 ft | 465 kts | 127° |
| 2026-04-30 08:33 | 52.82989 | -5.68211 | 40166 ft | 465 kts | 128° |
| 2026-04-30 08:33 | 52.79248 | -5.59472 | 40163 ft | 466 kts | 128° |
| 2026-04-30 08:34 | 52.75561 | -5.50677 | 40165 ft | 467 kts | 123° |
| 2026-04-30 08:34 | 52.72447 | -5.41252 | 40158 ft | 468 kts | 120° |
| 2026-04-30 08:35 | 52.69461 | -5.31713 | 40164 ft | 468 kts | 120° |
| 2026-04-30 08:35 | 52.66491 | -5.22160 | 40159 ft | 468 kts | 120° |
| 2026-04-30 08:36 | 52.63510 | -5.12645 | 40156 ft | 468 kts | 120° |
| 2026-04-30 08:36 | 52.60513 | -5.03152 | 40155 ft | 467 kts | 120° |
| 2026-04-30 08:37 | 52.57504 | -4.93670 | 40156 ft | 468 kts | 120° |
| 2026-04-30 08:37 | 52.54485 | -4.84188 | 40154 ft | 468 kts | 120° |
| 2026-04-30 08:38 | 52.51461 | -4.74726 | 40159 ft | 468 kts | 121° |
| 2026-04-30 08:38 | 52.48428 | -4.65269 | 40160 ft | 468 kts | 121° |
| 2026-04-30 08:39 | 52.45407 | -4.55887 | 40156 ft | 468 kts | 120° |
| 2026-04-30 08:39 | 52.42359 | -4.46455 | 40143 ft | 469 kts | 121° |
| 2026-04-30 08:40 | 52.39303 | -4.37035 | 40151 ft | 468 kts | 121° |
| 2026-04-30 08:40 | 52.36242 | -4.27636 | 40160 ft | 468 kts | 121° |
| 2026-04-30 08:41 | 52.33173 | -4.18255 | 40159 ft | 468 kts | 121° |
| 2026-04-30 08:41 | 52.30099 | -4.08888 | 40165 ft | 468 kts | 121° |
| 2026-04-30 08:42 | 52.27017 | -3.99534 | 40164 ft | 468 kts | 121° |
| 2026-04-30 08:42 | 52.23930 | -3.90198 | 40184 ft | 466 kts | 121° |
| 2026-04-30 08:43 | 52.20849 | -3.80914 | 40178 ft | 464 kts | 121° |
| 2026-04-30 08:43 | 52.17770 | -3.71671 | 40198 ft | 464 kts | 121° |
| 2026-04-30 08:44 | 52.14676 | -3.62425 | 40195 ft | 465 kts | 121° |
| 2026-04-30 08:44 | 52.11577 | -3.53193 | 40203 ft | 465 kts | 121° |
| 2026-04-30 08:45 | 52.08472 | -3.43979 | 40203 ft | 465 kts | 121° |
| 2026-04-30 08:45 | 52.05359 | -3.34771 | 40205 ft | 465 kts | 121° |
| 2026-04-30 08:46 | 52.02260 | -3.25640 | 40216 ft | 465 kts | 121° |
| 2026-04-30 08:46 | 51.99134 | -3.16466 | 40251 ft | 464 kts | 121° |
| 2026-04-30 08:47 | 51.96003 | -3.07311 | 40286 ft | 464 kts | 121° |
| 2026-04-30 08:47 | 51.92869 | -2.98180 | 40309 ft | 464 kts | 121° |
| 2026-04-30 08:48 | 51.89724 | -2.89053 | 40322 ft | 464 kts | 121° |
| 2026-04-30 08:48 | 51.86576 | -2.79946 | 40213 ft | 464 kts | 121° |
| 2026-04-30 08:49 | 51.83419 | -2.70845 | 40217 ft | 464 kts | 121° |
| 2026-04-30 08:49 | 51.80257 | -2.61765 | 40216 ft | 464 kts | 121° |
| 2026-04-30 08:50 | 51.77087 | -2.52696 | 40213 ft | 464 kts | 121° |
| 2026-04-30 08:50 | 51.73897 | -2.43603 | 40212 ft | 466 kts | 121° |
| 2026-04-30 08:51 | 51.70702 | -2.34527 | 40208 ft | 465 kts | 121° |
| 2026-04-30 08:51 | 51.67495 | -2.25451 | 40210 ft | 466 kts | 121° |
| 2026-04-30 08:52 | 51.64286 | -2.16397 | 40209 ft | 465 kts | 122° |
| 2026-04-30 08:52 | 51.61068 | -2.07353 | 40211 ft | 466 kts | 122° |
| 2026-04-30 08:53 | 51.57840 | -1.98310 | 40210 ft | 466 kts | 122° |
| 2026-04-30 08:53 | 51.54611 | -1.89303 | 40205 ft | 465 kts | 122° |
| 2026-04-30 08:54 | 51.51400 | -1.80371 | 40217 ft | 464 kts | 121° |
| 2026-04-30 08:54 | 51.48171 | -1.71425 | 40216 ft | 463 kts | 122° |
| 2026-04-30 08:55 | 51.45221 | -1.62220 | 40224 ft | 465 kts | 117° |
| 2026-04-30 08:55 | 51.42453 | -1.52864 | 40218 ft | 464 kts | 117° |
| 2026-04-30 08:56 | 51.39706 | -1.43493 | 40208 ft | 465 kts | 117° |
| 2026-04-30 08:56 | 51.36949 | -1.34132 | 40221 ft | 465 kts | 117° |
| 2026-04-30 08:57 | 51.34150 | -1.24811 | 40230 ft | 464 kts | 120° |
| 2026-04-30 08:57 | 51.30798 | -1.15999 | 40209 ft | 463 kts | 123° |
| 2026-04-30 08:58 | 51.27058 | -1.07688 | 40210 ft | 460 kts | 129° |
| 2026-04-30 08:58 | 51.23101 | -0.99629 | 40212 ft | 462 kts | 129° |
| 2026-04-30 08:59 | 51.19157 | -0.91514 | 40226 ft | 462 kts | 129° |
| 2026-04-30 08:59 | 51.15261 | -0.83369 | 40228 ft | 462 kts | 128° |
| 2026-04-30 09:00 | 51.11404 | -0.75273 | 40226 ft | 462 kts | 128° |
| 2026-04-30 09:00 | 51.07508 | -0.67119 | 40241 ft | 464 kts | 128° |
| 2026-04-30 09:01 | 51.03823 | -0.58644 | 40233 ft | 463 kts | 124° |
| 2026-04-30 09:01 | 51.00443 | -0.50042 | 40212 ft | 463 kts | 123° |
| 2026-04-30 09:02 | 50.95377 | -0.36992 | 40221 ft | 463 kts | 123° |
| 2026-04-30 09:02 | 50.91992 | -0.28326 | 40201 ft | 462 kts | 123° |
| 2026-04-30 09:03 | 50.88593 | -0.19670 | 40202 ft | 464 kts | 123° |
| 2026-04-30 09:03 | 50.85178 | -0.11009 | 40210 ft | 462 kts | 123° |
| 2026-04-30 09:04 | 50.81770 | -0.02391 | 40217 ft | 462 kts | 124° |
| 2026-04-30 09:04 | 50.78346 | 0.06237 | 40232 ft | 463 kts | 123° |
| 2026-04-30 09:05 | 50.74324 | 0.14076 | 40050 ft | 457 kts | 137° |
| 2026-04-30 09:05 | 50.71953 | 0.17404 | 39674 ft | 454 kts | 140° |
| 2026-04-30 09:05 | 50.69531 | 0.20596 | 39094 ft | 453 kts | 141° |
| 2026-04-30 09:06 | 50.67077 | 0.23720 | 38382 ft | 454 kts | 141° |
| 2026-04-30 09:06 | 50.64614 | 0.26816 | 37720 ft | 452 kts | 142° |
| 2026-04-30 09:06 | 50.62155 | 0.29902 | 37048 ft | 451 kts | 141° |
| 2026-04-30 09:06 | 50.59738 | 0.32943 | 36375 ft | 450 kts | 141° |
| 2026-04-30 09:07 | 50.57296 | 0.36022 | 35698 ft | 449 kts | 141° |
| 2026-04-30 09:07 | 50.54865 | 0.39092 | 35005 ft | 449 kts | 141° |
| 2026-04-30 09:07 | 50.52433 | 0.42172 | 34237 ft | 449 kts | 141° |
| 2026-04-30 09:07 | 50.50001 | 0.45255 | 33342 ft | 450 kts | 141° |
| 2026-04-30 09:08 | 50.47568 | 0.48342 | 32504 ft | 449 kts | 141° |
| 2026-04-30 09:08 | 50.45138 | 0.51429 | 31659 ft | 449 kts | 140° |
| 2026-04-30 09:08 | 50.42711 | 0.54500 | 30799 ft | 449 kts | 140° |
| 2026-04-30 09:08 | 50.40275 | 0.57573 | 29835 ft | 450 kts | 140° |
| 2026-04-30 09:09 | 50.37840 | 0.60639 | 29043 ft | 446 kts | 140° |
| 2026-04-30 09:09 | 50.35435 | 0.63663 | 28375 ft | 441 kts | 140° |
| 2026-04-30 09:09 | 50.33059 | 0.66651 | 27715 ft | 435 kts | 140° |
| 2026-04-30 09:09 | 50.30705 | 0.69599 | 27064 ft | 430 kts | 140° |
| 2026-04-30 09:10 | 50.28383 | 0.72510 | 26428 ft | 426 kts | 140° |
| 2026-04-30 09:10 | 50.26081 | 0.75392 | 25796 ft | 422 kts | 140° |
| 2026-04-30 09:10 | 50.23807 | 0.78223 | 25473 ft | 411 kts | 140° |
| 2026-04-30 09:10 | 50.21615 | 0.80954 | 25332 ft | 396 kts | 140° |
| 2026-04-30 09:11 | 50.19503 | 0.83586 | 25212 ft | 381 kts | 140° |
| 2026-04-30 09:11 | 50.17464 | 0.86112 | 25086 ft | 368 kts | 140° |
| 2026-04-30 09:11 | 50.15497 | 0.88565 | 24931 ft | 356 kts | 140° |
| 2026-04-30 09:11 | 50.13597 | 0.90944 | 24766 ft | 344 kts | 140° |
| 2026-04-30 09:12 | 50.11760 | 0.93245 | 24609 ft | 333 kts | 139° |
| 2026-04-30 09:12 | 50.09982 | 0.95467 | 24473 ft | 323 kts | 140° |
| 2026-04-30 09:12 | 50.08254 | 0.97617 | 24331 ft | 314 kts | 140° |
| 2026-04-30 09:12 | 50.06569 | 0.99696 | 24189 ft | 305 kts | 140° |
| 2026-04-30 09:13 | 50.04845 | 1.01632 | 23814 ft | 305 kts | 144° |
| 2026-04-30 09:13 | 50.03104 | 1.03416 | 23399 ft | 303 kts | 144° |
| 2026-04-30 09:13 | 50.01337 | 1.05193 | 23030 ft | 302 kts | 145° |
| 2026-04-30 09:13 | 49.99575 | 1.06955 | 22692 ft | 300 kts | 145° |
| 2026-04-30 09:14 | 49.97827 | 1.08712 | 22320 ft | 299 kts | 145° |
| 2026-04-30 09:14 | 49.96090 | 1.10459 | 21986 ft | 297 kts | 145° |
| 2026-04-30 09:14 | 49.94360 | 1.12188 | 21626 ft | 294 kts | 145° |
| 2026-04-30 09:14 | 49.92643 | 1.13903 | 21272 ft | 292 kts | 145° |
| 2026-04-30 09:15 | 49.90940 | 1.15611 | 20922 ft | 291 kts | 145° |
| 2026-04-30 09:15 | 49.89247 | 1.17310 | 20576 ft | 289 kts | 146° |
| 2026-04-30 09:15 | 49.87559 | 1.18994 | 20233 ft | 288 kts | 146° |
| 2026-04-30 09:15 | 49.85879 | 1.20671 | 19887 ft | 286 kts | 146° |
| 2026-04-30 09:16 | 49.84209 | 1.22342 | 19552 ft | 285 kts | 146° |
| 2026-04-30 09:16 | 49.82548 | 1.24003 | 19213 ft | 284 kts | 146° |
| 2026-04-30 09:16 | 49.80893 | 1.25649 | 18877 ft | 282 kts | 146° |
| 2026-04-30 09:16 | 49.79243 | 1.27294 | 18547 ft | 281 kts | 146° |
| 2026-04-30 09:17 | 49.77604 | 1.28931 | 18167 ft | 280 kts | 146° |
| 2026-04-30 09:17 | 49.75970 | 1.30561 | 17829 ft | 279 kts | 146° |
| 2026-04-30 09:17 | 49.74341 | 1.32175 | 17483 ft | 278 kts | 147° |
| 2026-04-30 09:17 | 49.72712 | 1.33783 | 17166 ft | 277 kts | 146° |
| 2026-04-30 09:18 | 49.71094 | 1.35384 | 16814 ft | 276 kts | 146° |
| 2026-04-30 09:18 | 49.69472 | 1.36992 | 16487 ft | 277 kts | 146° |
| 2026-04-30 09:18 | 49.67857 | 1.38599 | 16141 ft | 276 kts | 146° |
| 2026-04-30 09:18 | 49.66249 | 1.40198 | 15823 ft | 274 kts | 146° |
| 2026-04-30 09:19 | 49.64648 | 1.41778 | 15488 ft | 273 kts | 146° |
| 2026-04-30 09:19 | 49.63046 | 1.43356 | 15154 ft | 273 kts | 146° |
| 2026-04-30 09:19 | 49.61447 | 1.44937 | 14831 ft | 273 kts | 147° |
| 2026-04-30 09:19 | 49.60387 | 1.45979 | 14614 ft | 272 kts | 146° |
| 2026-04-30 09:20 | 49.58268 | 1.48065 | 14172 ft | 268 kts | 146° |
| 2026-04-30 09:20 | 49.57231 | 1.49091 | 13959 ft | 267 kts | 146° |
| 2026-04-30 09:20 | 49.55668 | 1.50626 | 13626 ft | 265 kts | 146° |
| 2026-04-30 09:20 | 49.54120 | 1.52153 | 13293 ft | 264 kts | 146° |
| 2026-04-30 09:21 | 49.52567 | 1.53684 | 12984 ft | 267 kts | 147° |
| 2026-04-30 09:21 | 49.51004 | 1.55213 | 12650 ft | 265 kts | 147° |
| 2026-04-30 09:21 | 49.49448 | 1.56739 | 12330 ft | 265 kts | 146° |
| 2026-04-30 09:21 | 49.47901 | 1.58258 | 12008 ft | 263 kts | 146° |
| 2026-04-30 09:22 | 49.46364 | 1.59767 | 11687 ft | 261 kts | 146° |
| 2026-04-30 09:22 | 49.44834 | 1.61261 | 11386 ft | 260 kts | 147° |
| 2026-04-30 09:22 | 49.43288 | 1.62697 | 11085 ft | 259 kts | 148° |
| 2026-04-30 09:22 | 49.41742 | 1.64107 | 10757 ft | 257 kts | 148° |
| 2026-04-30 09:23 | 49.40211 | 1.65510 | 10450 ft | 256 kts | 148° |
| 2026-04-30 09:23 | 49.38685 | 1.66913 | 10151 ft | 255 kts | 148° |
| 2026-04-30 09:23 | 49.37142 | 1.68335 | 9838 ft | 266 kts | 148° |
| 2026-04-30 09:23 | 49.35523 | 1.69820 | 9635 ft | 272 kts | 148° |
| 2026-04-30 09:24 | 49.33897 | 1.71315 | 9311 ft | 273 kts | 148° |
| 2026-04-30 09:24 | 49.32273 | 1.72808 | 8822 ft | 272 kts | 149° |
| 2026-04-30 09:24 | 49.30661 | 1.74284 | 8462 ft | 268 kts | 148° |
| 2026-04-30 09:24 | 49.29193 | 1.76019 | 8135 ft | 266 kts | 132° |
| 2026-04-30 09:25 | 49.28146 | 1.78338 | 8060 ft | 264 kts | 121° |
| 2026-04-30 09:25 | 49.27241 | 1.80779 | 8036 ft | 264 kts | 120° |
| 2026-04-30 09:25 | 49.26351 | 1.83220 | 7960 ft | 261 kts | 120° |
| 2026-04-30 09:25 | 49.25476 | 1.85616 | 7899 ft | 261 kts | 120° |
| 2026-04-30 09:26 | 49.24588 | 1.88047 | 7845 ft | 262 kts | 120° |
| 2026-04-30 09:26 | 49.23695 | 1.90478 | 7774 ft | 262 kts | 120° |
| 2026-04-30 09:26 | 49.22799 | 1.92910 | 7704 ft | 263 kts | 120° |
| 2026-04-30 09:26 | 49.21905 | 1.95333 | 7654 ft | 262 kts | 120° |
| 2026-04-30 09:27 | 49.21011 | 1.97755 | 7581 ft | 261 kts | 120° |
| 2026-04-30 09:27 | 49.20117 | 2.00155 | 7521 ft | 259 kts | 120° |
| 2026-04-30 09:27 | 49.19226 | 2.02560 | 7434 ft | 260 kts | 120° |
| 2026-04-30 09:27 | 49.18337 | 2.04971 | 7375 ft | 260 kts | 120° |
| 2026-04-30 09:28 | 49.17440 | 2.07384 | 7293 ft | 261 kts | 120° |
| 2026-04-30 09:28 | 49.16474 | 2.09712 | 7243 ft | 260 kts | 128° |
| 2026-04-30 09:28 | 49.15111 | 2.11505 | 7179 ft | 262 kts | 150° |
| 2026-04-30 09:28 | 49.13411 | 2.12486 | 6939 ft | 261 kts | 162° |
| 2026-04-30 09:29 | 49.11643 | 2.13179 | 6466 ft | 264 kts | 163° |
| 2026-04-30 09:29 | 49.09849 | 2.13773 | 6000 ft | 262 kts | 166° |
| 2026-04-30 09:29 | 49.08127 | 2.14311 | 5696 ft | 243 kts | 165° |
| 2026-04-30 09:29 | 49.06532 | 2.14883 | 5344 ft | 231 kts | 163° |
| 2026-04-30 09:30 | 49.05000 | 2.15452 | 4936 ft | 222 kts | 163° |
| 2026-04-30 09:30 | 49.03565 | 2.16037 | 4841 ft | 201 kts | 162° |
| 2026-04-30 09:30 | 49.02265 | 2.16573 | 4838 ft | 187 kts | 161° |
| 2026-04-30 09:30 | 49.01191 | 2.17429 | 4790 ft | 164 kts | 133° |
| 2026-04-30 09:31 | 49.00768 | 2.18880 | 4650 ft | 144 kts | 96° |
| 2026-04-30 09:31 | 49.00832 | 2.20310 | 4570 ft | 129 kts | 90° |
| 2026-04-30 09:31 | 49.00900 | 2.21639 | 4419 ft | 123 kts | 93° |
| 2026-04-30 09:31 | 49.00915 | 2.22947 | 4296 ft | 125 kts | 95° |
| 2026-04-30 09:32 | 49.00907 | 2.24270 | 4144 ft | 125 kts | 94° |
| 2026-04-30 09:32 | 49.00941 | 2.25589 | 3948 ft | 125 kts | 88° |
| 2026-04-30 09:32 | 49.01093 | 2.26888 | 3729 ft | 124 kts | 85° |
| 2026-04-30 09:32 | 49.01203 | 2.28174 | 3522 ft | 122 kts | 91° |
| 2026-04-30 09:33 | 49.01220 | 2.29449 | 3322 ft | 119 kts | 95° |
| 2026-04-30 09:33 | 49.01251 | 2.30722 | 3201 ft | 122 kts | 93° |
| 2026-04-30 09:33 | 49.01300 | 2.32012 | 3110 ft | 123 kts | 89° |
| 2026-04-30 09:33 | 49.01395 | 2.33296 | 2933 ft | 121 kts | 89° |
| 2026-04-30 09:34 | 49.01488 | 2.34563 | 2704 ft | 119 kts | 91° |
| 2026-04-30 09:34 | 49.01545 | 2.35791 | 2575 ft | 119 kts | 92° |
| 2026-04-30 09:34 | 49.01602 | 2.37069 | 2365 ft | 118 kts | 91° |
| 2026-04-30 09:34 | 49.01675 | 2.38300 | 2199 ft | 118 kts | 89° |
| 2026-04-30 09:35 | 49.01761 | 2.39553 | 2132 ft | 121 kts | 90° |
| 2026-04-30 09:35 | 49.01830 | 2.40832 | 1913 ft | 119 kts | 90° |
| 2026-04-30 09:35 | 49.01886 | 2.42049 | 1747 ft | 115 kts | 90° |
| 2026-04-30 09:35 | 49.01944 | 2.43271 | 1616 ft | 116 kts | 89° |
| 2026-04-30 09:36 | 49.02013 | 2.44493 | 1412 ft | 115 kts | 89° |
| 2026-04-30 09:36 | 49.02100 | 2.45701 | 1306 ft | 114 kts | 88° |
| 2026-04-30 09:36 | 49.02164 | 2.46890 | 1196 ft | 115 kts | 90° |
| 2026-04-30 09:36 | 49.02210 | 2.48142 | 944 ft | 118 kts | 88° |
| 2026-04-30 09:37 | 49.02284 | 2.49376 | 845 ft | 120 kts | 82° |
| 2026-04-30 09:37 | 49.02378 | 2.50625 | 661 ft | 117 kts | 88° |
| 2026-04-30 09:37 | 49.02450 | 2.51855 | 482 ft | 117 kts | 90° |
| 2026-04-30 09:37 | 49.02513 | 2.53089 | 365 ft | 117 kts | 90° |
| 2026-04-30 09:38 | 49.02559 | 2.54101 | 360 ft | 66 kts | 85° |
| 2026-04-30 09:38 | 49.02584 | 2.54622 | 363 ft | 33 kts | 85° |
| 2026-04-30 09:38 | 49.02599 | 2.54923 | 364 ft | 28 kts | 86° |
| 2026-04-30 09:38 | 49.02586 | 2.55202 | 370 ft | 26 kts | 107° |
| 2026-04-30 09:39 | 49.02516 | 2.55459 | 368 ft | 24 kts | 115° |
| 2026-04-30 09:39 | 49.02444 | 2.55597 | 369 ft | 16 kts | 156° |
| 2026-04-30 09:39 | 49.02326 | 2.55622 | 361 ft | 18 kts | 175° |
| 2026-04-30 09:39 | 49.02189 | 2.55640 | 368 ft | 21 kts | 175° |
| 2026-04-30 09:40 | 49.02036 | 2.55656 | 363 ft | 23 kts | 177° |
| 2026-04-30 09:40 | 49.01920 | 2.55695 | 369 ft | 12 kts | 135° |
| 2026-04-30 09:40 | 49.01904 | 2.55835 | 367 ft | 16 kts | 86° |
| 2026-04-30 09:40 | 49.01915 | 2.56013 | 364 ft | 19 kts | 84° |
| 2026-04-30 09:41 | 49.01928 | 2.56245 | 366 ft | 23 kts | 85° |
| 2026-04-30 09:41 | 49.01939 | 2.56493 | 365 ft | 24 kts | 86° |
| 2026-04-30 09:41 | 49.01948 | 2.56752 | 361 ft | 26 kts | 86° |
| 2026-04-30 09:41 | 49.01966 | 2.57052 | 365 ft | 29 kts | 85° |
| 2026-04-30 09:42 | 49.01984 | 2.57364 | 362 ft | 30 kts | 85° |
| 2026-04-30 09:42 | 49.01999 | 2.57668 | 366 ft | 26 kts | 87° |
| 2026-04-30 09:42 | 49.01938 | 2.57914 | 369 ft | 26 kts | 138° |
| 2026-04-30 09:42 | 49.01766 | 2.57997 | 365 ft | 29 kts | 175° |
| 2026-04-30 09:43 | 49.01528 | 2.58015 | 367 ft | 36 kts | 177° |
| 2026-04-30 09:43 | 49.01280 | 2.58053 | 365 ft | 36 kts | 173° |
| 2026-04-30 09:43 | 49.01100 | 2.58078 | 363 ft | 20 kts | 176° |
| 2026-04-30 09:43 | 49.00974 | 2.58091 | 368 ft | 16 kts | 175° |
| 2026-04-30 09:44 | 49.00855 | 2.58120 | 365 ft | 18 kts | 153° |
| 2026-04-30 09:44 | 49.00828 | 2.58286 | 364 ft | 18 kts | 83° |
| 2026-04-30 09:44 | 49.00840 | 2.58482 | 367 ft | 19 kts | 85° |
| 2026-04-30 09:44 | 49.00834 | 2.58627 | 366 ft | 15 kts | 116° |
| 2026-04-30 09:45 | 49.00726 | 2.58696 | 367 ft | 20 kts | 174° |
| 2026-04-30 09:45 | 49.00583 | 2.58714 | 368 ft | 22 kts | 175° |
| 2026-04-30 09:45 | 49.00424 | 2.58730 | 368 ft | 24 kts | 174° |
| 2026-04-30 09:45 | 49.00256 | 2.58751 | 361 ft | 20 kts | 175° |
| 2026-04-30 09:46 | 49.00132 | 2.58767 | 360 ft | 16 kts | 175° |
| 2026-04-30 09:46 | 49.00055 | 2.58738 | 366 ft | 12 kts | 223° |
| 2026-04-30 09:46 | 49.00027 | 2.58608 | 365 ft | 14 kts | 263° |
| 2026-04-30 09:46 | 49.00017 | 2.58441 | 367 ft | 17 kts | 266° |
| 2026-04-30 09:47 | 49.00007 | 2.58244 | 364 ft | 20 kts | 265° |
| 2026-04-30 09:47 | 48.99996 | 2.58034 | 362 ft | 15 kts | 265° |
| 2026-04-30 09:47 | 48.99988 | 2.57876 | 367 ft | 16 kts | 265° |
| 2026-04-30 09:47 | 48.99979 | 2.57690 | 366 ft | 19 kts | 265° |
| 2026-04-30 09:48 | 48.99967 | 2.57491 | 360 ft | 14 kts | 265° |
| 2026-04-30 09:48 | 48.99960 | 2.57358 | 367 ft | 12 kts | 267° |
| 2026-04-30 09:48 | 49.00008 | 2.57291 | 369 ft | 10 kts | 8° |
| 2026-04-30 09:48 | 49.00041 | 2.57376 | 361 ft | 11 kts | 83° |
| 2026-04-30 09:49 | 49.00049 | 2.57493 | 366 ft | 9 kts | 85° |
| 2026-04-30 09:49 | 49.00081 | 2.57527 | 365 ft | 6 kts | 10° |
| 2026-04-30 09:49 | 49.00118 | 2.57527 | 362 ft | 3 kts | 358° |
| 2026-04-30 09:49 | 49.00130 | 2.57526 | 368 ft | 0 kts | 359° |
| 2026-04-30 09:50 | 49.00142 | 2.57526 | 369 ft | 0 kts | 359° |